»·PEaware :: GREY457 KLSV-KLSV

GREY457 :: KLSV-KLSV

FLIGHT INFORMATION

Flight Status: Arrived
Operator: Unknown
More flights by this operator :: More flights under this callsign
Pilot: Alan S. (10569)
Aircraft: DASSAULT AVIATION MIRAGE 2000 VAJARA
(MIR2)
More flights by this aircraft type
Origin: KLSV Nellis AFB
United States
Destination: KLSV Nellis AFB
United States
More flights between these airports :: More routes between these airports
Route: +
File this flight plan on PilotEdge
Remarks:
Altitude:
(Current/Filed)
0ft
Speed:
(Current/Filed)
0kts
Departed: 22-Nov-16 06:55 PM
Arrived: 22-Nov-16 07:43 PM
Distance/Time
Traveled:
1nm/0:47
Distance/Time
To Go:
Arrived

Flight Plot

Page will automatically refresh every two minutes.


Map Options




Map Legend


Flown Route
Filed Route
Departure Airport
Arrival Airport
Navaid (VOR, NDB)
Fix

Horizontal Profiles

Position Reports

Time Latitude Longitude Heading Altitude Ground
Speed
22-Nov-16 18:39 36.227283 -115.034395 311 1847ft 0kts
22-Nov-16 18:40 36.227283 -115.034395 311 1847ft 0kts
22-Nov-16 18:41 36.227283 -115.034395 311 1847ft 0kts
22-Nov-16 18:42 36.227341 -115.034474 311 1847ft 0kts
22-Nov-16 18:43 36.226872 -115.035832 220 1847ft 12kts
22-Nov-16 18:44 36.224402 -115.038522 220 1847ft 17kts
22-Nov-16 18:45 36.222953 -115.041371 315 1846ft 9kts
22-Nov-16 18:46 36.224426 -115.043330 320 1846ft 1kts
22-Nov-16 18:47 36.225911 -115.043073 40 1846ft 0kts
22-Nov-16 18:48 36.237856 -115.030023 40 1852ft 160kts
22-Nov-16 18:49 36.299748 -114.997676 302 2980ft 369kts
22-Nov-16 18:50 36.381974 -115.100785 299 4574ft 454kts
22-Nov-16 18:51 36.486926 -115.190652 261 8529ft 404kts
22-Nov-16 18:52 36.499577 -115.347757 311 7623ft 507kts
22-Nov-16 18:53 36.600787 -115.487163 310 7597ft 566kts
22-Nov-16 18:54 36.708479 -115.635807 311 7597ft 582kts
22-Nov-16 18:55 36.841911 -115.649065 50 5989ft 553kts
22-Nov-16 18:56 36.896245 -115.474033 91 3740ft 604kts
22-Nov-16 18:57 36.920041 -115.465111 186 3757ft 510kts
22-Nov-16 18:58 36.806073 -115.433357 295 9846ft 232kts
22-Nov-16 18:59 36.923959 -115.476490 333 5628ft 462kts
22-Nov-16 19:00 36.873695 -115.442831 168 5160ft 469kts
22-Nov-16 19:01 36.933696 -115.489392 1 5400ft 478kts
22-Nov-16 19:02 36.946549 -115.478158 163 4631ft 511kts
22-Nov-16 19:03 36.830424 -115.479222 170 7897ft 503kts
22-Nov-16 19:04 36.896655 -115.462666 338 3620ft 543kts
22-Nov-16 19:05 37.007227 -115.509724 346 12390ft 321kts
22-Nov-16 19:06 37.126899 -115.544012 345 15216ft 514kts
22-Nov-16 19:07 37.277045 -115.587157 346 15219ft 578kts
22-Nov-16 19:08 37.438116 -115.633411 346 15219ft 594kts
22-Nov-16 19:09 37.596190 -115.678856 346 15220ft 574kts
22-Nov-16 19:10 37.751868 -115.723716 346 15220ft 569kts
22-Nov-16 19:11 37.906278 -115.768353 346 15220ft 567kts
22-Nov-16 19:12 38.060983 -115.813238 346 15220ft 567kts
22-Nov-16 19:13 38.171887 -115.818227 207 12890ft 394kts
22-Nov-16 19:14 38.053729 -115.881302 202 12915ft 519kts
22-Nov-16 19:15 37.911988 -115.955932 201 12918ft 569kts
22-Nov-16 19:16 37.761782 -116.020869 173 13401ft 565kts
22-Nov-16 19:17 37.609876 -116.000880 173 13427ft 532kts
22-Nov-16 19:18 37.499149 -115.896359 136 14065ft 509kts
22-Nov-16 19:19 37.394760 -115.773363 136 14072ft 513kts
22-Nov-16 19:20 37.290899 -115.649997 135 14073ft 512kts
22-Nov-16 19:21 37.186957 -115.527088 136 14073ft 510kts
22-Nov-16 19:22 37.083335 -115.405462 136 14073ft 509kts
22-Nov-16 19:23 36.974682 -115.300241 137 14716ft 427kts
22-Nov-16 19:24 36.984565 -115.210696 19 14922ft 276kts
22-Nov-16 19:25 37.044700 -115.243777 284 14967ft 259kts
22-Nov-16 19:26 37.013416 -115.315481 190 15002ft 263kts
22-Nov-16 19:27 36.998901 -115.348441 174 10746ft 290kts
22-Nov-16 19:28 36.889011 -115.335403 174 10162ft 460kts
22-Nov-16 19:29 36.751396 -115.319505 174 9438ft 532kts
22-Nov-16 19:30 36.604536 -115.325332 182 7681ft 472kts
22-Nov-16 19:31 36.483028 -115.325285 152 7603ft 411kts
22-Nov-16 19:32 36.392847 -115.232686 137 5460ft 429kts
22-Nov-16 19:33 36.336852 -115.108768 107 4278ft 395kts
22-Nov-16 19:34 36.306788 -114.988116 121 3797ft 329kts
22-Nov-16 19:35 36.300991 -114.966305 60 2977ft 246kts
22-Nov-16 19:36 36.251850 -115.031758 180 1866ft 0kts
22-Nov-16 19:37 36.251850 -115.031758 180 1866ft 0kts

Navigation Log

Ident Type
1. KLSV Airport
2. KLSV Airport